Dati Storici Stazione
 
Giornaliero Riassunto Febbraio 04, 2023 Unita' di misura:  Metriche    Inglesi   Entrambe
Giornaliero Settimanale Mensile Annuale
  Attuale: Max: Min: Media:
Temperatura: 9.7 °C 9.7 °C 7.7 °C 8.3 °C
Punto di Rugiada: 3.4 °C 3.5 °C 2 °C 2.5 °C
Umidita': 65% 68.8% 64% 67%
Velocita' Vento: 8km/h 8.4km/h 2km/h 6.5km/h
Raffica di Vento: 12.9km/h 12.9km/h - -
Direzione VentoWest - - WSW
Pressione: 1019.6 hPa 1020.7 hPa 1019.6 hPa -
Precipitazioni: 0.0 mm      
 
 
Tabelle Dati per il Febbraio 04, 2023
Ora Temperatura Punto Rugiada Pressione Dir.Vento Vel.Vento Raff.Vento Umidita' Rainfall Rate (Orario) Solare Condizioni
00:04 7.9 °C 2.4 °C 1020.7 hPa WSW 2 km/h 9.7 km/h 68.5% 0.0 mm W/m2
00:09 8.2 °C 2.5 °C 1020.7 hPa WSW 4.5 km/h 9.7 km/h 67.4% 0.0 mm W/m2
00:14 8.2 °C 2.4 °C 1020.7 hPa WSW 6.4 km/h 9.7 km/h 67% 0.0 mm W/m2
00:19 8.2 °C 2.4 °C 1020.3 hPa WSW 6.4 km/h 9.7 km/h 67% 0.0 mm W/m2
00:24 8.1 °C 2.4 °C 1020.3 hPa WSW 7.4 km/h 9.7 km/h 67% 0.0 mm W/m2
00:29 8.1 °C 2.3 °C 1020.3 hPa WSW 8 km/h 9.7 km/h 67% 0.0 mm W/m2
00:34 8.1 °C 2.4 °C 1020.0 hPa WSW 8 km/h 8 km/h 67% 0.0 mm W/m2
00:39 8.1 °C 2.4 °C 1020.0 hPa WSW 6.4 km/h 9.7 km/h 67% 0.0 mm W/m2
00:44 8 °C 2.4 °C 1020.0 hPa WSW 5.5 km/h 9.7 km/h 67.6% 0.0 mm W/m2
00:49 7.9 °C 2.3 °C 1020.0 hPa WSW 4.8 km/h 6.4 km/h 68% 0.0 mm W/m2
00:54 7.8 °C 2.3 °C 1020.0 hPa WSW 4.8 km/h 6.4 km/h 68% 0.0 mm W/m2
00:59 7.8 °C 2.2 °C 1020.0 hPa SW 4.8 km/h 6.4 km/h 68% 0.0 mm W/m2
01:04 7.8 °C 2.3 °C 1020.0 hPa SW 4.8 km/h 6.4 km/h 68% 0.0 mm W/m2
01:09 7.7 °C 2.4 °C 1020.0 hPa SW 4.8 km/h 6.4 km/h 68.8% 0.0 mm W/m2
01:14 7.8 °C 2.2 °C 1020.3 hPa SW 4.8 km/h 6.4 km/h 68% 0.0 mm W/m2
01:19 7.9 °C 2.3 °C 1020.3 hPa SW 4.8 km/h 6.4 km/h 67.8% 0.0 mm W/m2
01:24 7.9 °C 2.2 °C 1020.0 hPa WSW 4.8 km/h 6.4 km/h 67% 0.0 mm W/m2
01:29 8.1 °C 2.1 °C 1020.0 hPa WSW 5.5 km/h 8 km/h 66.2% 0.0 mm W/m2
01:34 8.3 °C 2.1 °C 1020.0 hPa WSW 6.4 km/h 8 km/h 65% 0.0 mm W/m2
01:39 8.5 °C 2 °C 1020.0 hPa WSW 7.1 km/h 8 km/h 64% 0.0 mm W/m2
01:44 8.4 °C 2.2 °C 1020.0 hPa WSW 8 km/h 8 km/h 65% 0.0 mm W/m2
01:49 8.3 °C 2.1 °C 1020.3 hPa West 6.4 km/h 9.7 km/h 65% 0.0 mm W/m2
01:54 8.4 °C 2.2 °C 1020.0 hPa West 8 km/h 9.7 km/h 64.8% 0.0 mm W/m2
01:59 8.3 °C 2.1 °C 1020.0 hPa West 8 km/h 9.7 km/h 65.2% 0.0 mm W/m2
02:04 8.1 °C 2.1 °C 1020.0 hPa WNW 6.4 km/h 6.4 km/h 66% 0.0 mm W/m2
02:09 8 °C 2.2 °C 1020.0 hPa West 6.4 km/h 9.7 km/h 66.8% 0.0 mm W/m2
02:14 8 °C 2.4 °C 1020.0 hPa West 6.8 km/h 11.3 km/h 67.8% 0.0 mm W/m2
02:19 8.1 °C 2.6 °C 1020.0 hPa West 8 km/h 11.3 km/h 68% 0.0 mm W/m2
02:24 8.4 °C 2.8 °C 1020.0 hPa West 8.4 km/h 11.3 km/h 68% 0.0 mm W/m2
02:29 8.6 °C 2.9 °C 1020.0 hPa West 8 km/h 11.3 km/h 67.2% 0.0 mm W/m2
02:34 8.9 °C 3.1 °C 1020.0 hPa WSW 8 km/h 9.7 km/h 67% 0.0 mm W/m2
02:39 9.2 °C 3.2 °C 1020.0 hPa West 8 km/h 9.7 km/h 66.2% 0.0 mm W/m2
02:44 9.4 °C 3.3 °C 1020.0 hPa West 8 km/h 9.7 km/h 66% 0.0 mm W/m2
02:49 9.4 °C 3.4 °C 1020.0 hPa WSW 7.1 km/h 11.3 km/h 66% 0.0 mm W/m2
02:54 9.6 °C 3.5 °C 1019.6 hPa WNW 8 km/h 9.7 km/h 65.6% 0.0 mm W/m2
02:59 9.7 °C 3.4 °C 1019.6 hPa West 8 km/h 12.9 km/h 65% 0.0 mm W/m2
Valenzano Lamie, Italia
Complimenti a Weather Underground - 2 mb